ADDS METAR Data INFO
IDs: Format: Raw Decoded Include TAF

Data at: 1943 UTC 17 Feb 2018

KPWM 171851Z 15013G19KT 10SM SCT250 M02/M11 A3033 RMK AO2 SLP272 T10221111 $
KPWM 171751Z 13006KT 10SM FEW250 M01/M12 A3035 RMK AO2 SLP277 T10111117 11011 21061 58020 $
KPWM 171651Z VRB04KT 10SM FEW250 M02/M14 A3038 RMK AO2 SLP287 T10171139 $
KPWM 171551Z 00000KT 10SM CLR M02/M14 A3040 RMK AO2 SLP294 T10171144 $
KPWM 171451Z 08005KT 10SM CLR M03/M16 A3041 RMK AO2 SLP297 T10281156 50010 $
KPWM 171351Z COR 080/05 10SM CLR M04/M14 A3043 RMK AO2 SLP304 T10391144 $
KPWM 171251Z 35005KT 10SM CLR M04/M14 A3041 RMK AO2 SLP300 T10441144 $
KPWM 171151Z VRB05KT 10SM CLR M06/M15 A3038 RMK AO2 SLP287 70001 T10611150 11028 21067 51048 $
KPWM 171051Z 33007KT 10SM CLR M06/M14 A3034 RMK AO2 SLP274 T10561144
KPWM 170951Z VRB05KT 10SM CLR M06/M11 A3028 RMK AO2 SLP255 T10611106
KPWM 170851Z AUTO 00000KT 10SM CLR M04/M12 A3023 RMK AO2 SLP239 T10441117 53043
KPWM 170751Z AUTO VRB03KT 10SM CLR M04/M11 A3018 RMK AO2 SLP220 T10391111
KPWM 170651Z AUTO 36005KT 10SM CLR M03/M11 A3014 RMK AO2 SLP206 T10331111
KPWM 170551Z AUTO VRB06KT 10SM CLR M03/M11 A3011 RMK AO2 SLP196 LAST T10281111 10044 21028 51055
KPWM 170451Z 35011G21KT 10SM CLR M02/M11 A3006 RMK AO2 SLP179 T10221106 400781022
KPWM 170351Z 33013G22KT 10SM CLR M01/M10 A3001 RMK AO2 SLP162 T10111100
KPWM 170251Z 32012G20KT 10SM CLR M01/M08 A2994 RMK AO2 PK WND 33027/0152 SLP141 T10061083 51075
KPWM 170151Z 33016G26KT 310V010 10SM CLR 01/M08 A2988 RMK AO2 PK WND 34033/0131 PRESRR SLP120 T00061078
KPWM 170051Z 33018G25KT 10SM CLR 02/M04 A2979 RMK AO2 PK WND 34031/0031 PRESRR SLP090 T00221044
KPWM 162351Z VRB06G23KT 10SM SCT036 04/M01 A2972 RMK AO2 SLP066 60000 T00391011 10078 20039 53053
KPWM 162251Z 31014KT 10SM SCT039 BKN055 BKN070 06/01 A2966 RMK AO2 RAB29E40 PRESRR SLP043 P0000 T00610006
KPWM 162151Z VRB05KT 7SM FEW040 BKN050 OVC075 05/04 A2960 RMK AO2 SLP023 T00500039
KPWM 162051Z 30003KT 10SM SCT033 OVC045 06/04 A2957 RMK AO2 RAB29E51 SLP012 P0000 60000 T00610039 53016
KPWM 161951Z 18003KT 10SM SCT036 OVC048 07/04 A2953 RMK AO2 SLP998 T00720039
KPWM 161851Z 00000KT 10SM SCT030 BKN039 OVC050 07/05 A2953 RMK AO2 SLP000 T00720050
KPWM 161751Z VRB05KT 10SM OVC032 07/06 A2952 RMK AO2 SLP996 60001 T00720056 10072 20028 55000
KPWM 161651Z 00000KT 9SM OVC029 06/05 A2952 RMK AO2 SLP995 T00610050
KPWM 161551Z VRB05KT 10SM BKN028 06/06 A2952 RMK AO2 SLP996 T00610061
KPWM 161451Z 00000KT 5SM MIFG BR BKN023 04/04 A2952 RMK AO2 SLP997 60001 T00440044 58005
KPWM 161351Z VRB05KT 2SM BR BKN002 BKN012 BKN120 04/04 A2955 RMK AO2 SLP008 T00440039 $
KPWM 161251Z 00000KT 1/4SM FG BKN002 OVC075 03/03 A2953 RMK AO2 RAE31 SLP001 P0001 T00280028
KPWM 161249Z 00000KT 1/4SM FG SCT002 OVC070 03/03 A2953 RMK AO2 RAE31 P0001
KPWM 161237Z VRB03KT 1/4SM FG SCT046 OVC075 04/04 A2952 RMK AO2 RAE31 P0001 T00390039
KPWM 161225Z 00000KT 1 1/2SM -RA BR OVC065 04/04 A2952 RMK AO2 P0001 T00440044
KPWM 161151Z 00000KT 1/2SM -RA FG BKN070 OVC080 04/04 A2950 RMK AO2 SLP991 P0001 60009 70009 T00390039 10061 20028 58008
KPWM 161051Z 00000KT 1 1/2SM -RA BR OVC070 03/03 A2952 RMK AO2 PRESFR SLP997 P0007 T00330033
KPWM 161012Z VRB04KT 1 1/2SM -RA BR OVC070 04/04 A2955 RMK AO2 P0003 T00390039
KPWM 160951Z VRB03KT 4SM -RA BR OVC075 04/04 A2954 RMK AO2 RAB25 SLP004 P0001 T00390039
KPWM 160943Z AUTO 00000KT 5SM -RA BR FEW048 OVC070 04/04 A2953 RMK AO2 RAB25 P0001 T00390039
KPWM 160935Z AUTO 21005KT 2 1/2SM -RA BR BKN070 OVC085 03/03 A2953 RMK AO2 VIS 1 1/2V5 RAB25 P0000 T00330033
KPWM 160919Z AUTO VRB03KT 1 3/4SM BR BKN080 OVC095 04/04 A2954 RMK AO2 T00390039
KPWM 160851Z AUTO 21003KT 6SM BR OVC095 06/06 A2953 RMK AO2 SLP999 T00560056 56011
KPWM 160821Z AUTO 19005KT 7SM SCT100 05/05 A2954 RMK AO2 T00500050
KPWM 160814Z AUTO 19006KT 2 1/2SM BR FEW100 05/05 A2955 RMK AO2 T00500050
KPWM 160808Z AUTO 21004KT 1SM BR CLR 04/04 A2955 RMK AO2 T00390039
KPWM 160756Z AUTO 00000KT 3/4SM BR CLR 03/03 A2954 RMK AO2 T00330033
KPWM 160751Z AUTO 00000KT 1 3/4SM BR CLR 03/03 A2954 RMK AO2 SLP003 T00330033
KPWM 160746Z AUTO 32003KT 2 1/2SM BR CLR 04/03 A2954 RMK AO2 VIS 1 1/4V5